createdAt,value
2018-05-24T02:25:51.928Z,3
2018-05-24T02:35:52.636Z,7
2018-05-24T02:39:22.657Z,10
2018-05-24T02:42:22.831Z,13
2018-05-24T02:44:22.958Z,17
2018-05-24T02:45:53.072Z,20
2018-05-24T02:46:53.124Z,23
2018-05-24T02:47:53.180Z,27
2018-05-24T02:48:53.323Z,30
2018-05-24T02:49:53.336Z,33
2018-05-24T02:50:53.374Z,37
2018-05-24T02:51:23.405Z,40
2018-05-24T02:51:53.488Z,43
2018-05-24T02:52:23.570Z,47
2018-05-24T02:53:23.530Z,50
2018-05-24T02:53:53.633Z,53
2018-05-24T02:54:23.603Z,60
2018-05-24T02:54:53.674Z,63
2018-05-24T02:55:23.666Z,67
2018-05-24T02:55:53.743Z,70
2018-05-24T02:56:23.796Z,73
2018-05-24T02:56:53.790Z,80
2018-05-24T02:57:23.839Z,83
2018-05-24T02:57:53.843Z,87
2018-05-24T02:58:23.837Z,93
2018-05-24T02:58:53.903Z,97
2018-05-24T02:59:23.894Z,103
2018-05-24T02:59:54.001Z,110
2018-05-24T03:00:23.961Z,113
2018-05-24T03:00:54.039Z,120
2018-05-24T03:01:24.049Z,127
2018-05-24T03:01:54.102Z,133
2018-05-24T03:02:24.156Z,140
2018-05-24T03:02:54.203Z,147
2018-05-24T03:03:24.145Z,157
2018-05-24T03:03:54.207Z,163
2018-05-24T03:04:24.200Z,170
2018-05-24T03:04:54.277Z,177
2018-05-24T03:05:24.249Z,187
2018-05-24T03:05:54.362Z,193
2018-05-24T03:06:24.388Z,203
2018-05-24T03:06:54.413Z,210
2018-05-24T03:07:24.500Z,213
2018-05-24T03:07:54.419Z,223
2018-05-24T03:08:24.489Z,230
2018-05-24T03:08:54.556Z,240
2018-05-24T03:09:24.519Z,250
2018-05-24T03:09:54.577Z,257
2018-05-24T03:10:24.574Z,267
2018-05-24T03:10:54.647Z,277
2018-05-24T03:11:24.633Z,287
2018-05-24T03:11:54.710Z,297
2018-05-24T03:12:24.762Z,307
2018-05-24T03:12:54.766Z,317
2018-05-24T03:13:24.823Z,330
2018-05-24T03:13:54.826Z,340
2018-05-24T03:14:24.882Z,350
2018-05-24T03:14:54.882Z,363
2018-05-24T03:15:24.886Z,373
2018-05-24T03:15:54.909Z,387
2018-05-24T03:16:24.917Z,400
2018-05-24T03:16:55.011Z,410
2018-05-24T03:17:25.026Z,423
2018-05-24T03:17:55.072Z,433
2018-05-24T03:18:25.066Z,447
2018-05-24T03:18:55.128Z,463
2018-05-24T03:19:25.175Z,477
2018-05-24T03:19:55.145Z,490
2018-05-24T03:20:25.263Z,507
2018-05-24T03:20:55.258Z,523
2018-05-24T03:21:25.309Z,540
2018-05-24T03:21:55.319Z,560
2018-05-24T03:22:25.358Z,577
2018-05-24T03:22:55.376Z,597
2018-05-24T03:23:25.450Z,617
2018-05-24T03:23:55.445Z,633
2018-05-24T03:24:25.451Z,643
2018-05-24T03:24:55.498Z,660
2018-05-24T03:25:25.548Z,677
2018-05-24T03:25:55.608Z,693
2018-05-24T03:26:25.547Z,710
2018-05-24T03:26:55.632Z,727
2018-05-24T03:27:25.605Z,747
2018-05-24T03:27:55.659Z,763
2018-05-24T03:28:25.902Z,783
2018-05-24T03:28:55.758Z,803
2018-05-24T03:29:25.739Z,823
2018-05-24T03:29:55.769Z,843
2018-05-24T03:30:25.790Z,857
2018-05-24T03:30:55.827Z,873
2018-05-24T03:31:25.831Z,890
2018-05-24T03:31:55.894Z,907
2018-05-24T03:32:25.901Z,923
2018-05-24T03:32:55.945Z,943
2018-05-24T03:33:26.004Z,957
2018-05-24T03:33:56.008Z,973
2018-05-24T03:34:26.054Z,987
2018-05-24T03:34:56.075Z,1000
2018-05-24T03:35:26.128Z,1010
2018-05-24T03:35:56.143Z,1020
2018-05-24T03:36:26.173Z,1033
2018-05-24T03:36:56.204Z,1043
2018-05-24T03:37:26.209Z,1057
2018-05-24T03:37:56.273Z,1067
2018-05-24T03:38:26.393Z,1083
2018-05-24T03:38:56.364Z,1100
2018-05-24T03:39:26.423Z,1113
2018-05-24T03:39:56.423Z,1127
2018-05-24T03:40:26.478Z,1137
2018-05-24T03:40:56.480Z,1143
2018-05-24T03:41:26.516Z,1150
2018-05-24T03:41:56.530Z,1153
2018-05-24T03:42:26.563Z,1157
2018-05-24T03:42:56.587Z,1160
2018-05-24T03:43:26.632Z,1167
2018-05-24T03:43:56.680Z,1177
2018-05-24T03:44:26.680Z,1187
2018-05-24T03:44:56.715Z,1200
2018-05-24T03:45:26.736Z,1217
2018-05-24T03:45:56.830Z,1237
2018-05-24T03:46:26.847Z,1257
2018-05-24T03:46:56.863Z,1277
2018-05-24T03:47:26.875Z,1293
2018-05-24T03:47:56.911Z,1317
2018-05-24T03:48:26.921Z,1340
2018-05-24T03:48:56.934Z,1363
2018-05-24T03:49:26.998Z,1387
2018-05-24T03:49:57.017Z,1413
2018-05-24T03:50:27.027Z,1440
2018-05-24T03:50:57.110Z,1470
2018-05-24T03:51:27.092Z,1493
2018-05-24T03:51:57.133Z,1520
2018-05-24T03:52:27.180Z,1550
2018-05-24T03:52:57.250Z,1580
2018-05-24T03:53:27.219Z,1610
2018-05-24T03:53:57.363Z,1640
2018-05-24T03:54:27.281Z,1673
2018-05-24T03:54:57.373Z,1707
2018-05-24T03:55:27.362Z,1737
2018-05-24T03:55:57.387Z,1773
2018-05-24T03:56:27.417Z,1810
2018-05-24T03:56:57.470Z,1850
2018-05-24T03:57:27.463Z,1887
2018-05-24T03:57:57.495Z,1920
2018-05-24T03:58:27.543Z,1957
2018-05-24T03:58:57.700Z,1990
2018-05-24T03:59:27.585Z,2020
2018-05-24T03:59:57.629Z,2047
2018-05-24T04:00:27.624Z,2070
2018-05-24T04:00:57.667Z,2093
2018-05-24T04:01:27.738Z,2113
2018-05-24T04:01:57.768Z,2133
2018-05-24T04:02:27.793Z,2160
2018-05-24T04:02:57.861Z,2187
2018-05-24T04:03:27.846Z,2220
2018-05-24T04:03:57.918Z,2257
2018-05-24T04:04:27.905Z,2293
2018-05-24T04:04:58.010Z,2330
2018-05-24T04:05:27.948Z,2357
2018-05-24T04:05:58.062Z,2390
2018-05-24T04:06:28.046Z,2420
2018-05-24T04:06:58.044Z,2453
2018-05-24T04:07:28.094Z,2483
2018-05-24T04:07:58.186Z,2517
2018-05-24T04:08:28.146Z,2550
2018-05-24T04:08:58.223Z,2580
2018-05-24T04:09:28.210Z,2613
2018-05-24T04:09:58.293Z,2653
2018-05-24T04:10:28.297Z,2693
2018-05-24T04:10:58.360Z,2730
2018-05-24T04:11:28.330Z,2767
2018-05-24T04:11:58.427Z,2800
2018-05-24T04:12:28.411Z,2847
2018-05-24T04:12:58.472Z,2893
2018-05-24T04:13:28.452Z,2940
2018-05-24T04:13:58.475Z,2983
2018-05-24T04:14:28.520Z,3023
2018-05-24T04:14:58.538Z,3073
2018-05-24T04:15:28.549Z,3120
2018-05-24T04:15:58.604Z,3170
2018-05-24T04:16:28.610Z,3213
2018-05-24T04:16:58.792Z,3257
2018-05-24T04:17:28.696Z,3290
2018-05-24T04:17:58.753Z,3310
2018-05-24T04:18:28.733Z,3317
2018-05-24T04:18:58.789Z,3320
2018-05-24T04:19:28.795Z,3327
2018-05-24T04:19:58.873Z,3337
2018-05-24T04:20:28.860Z,3353
2018-05-24T04:20:58.903Z,3373
2018-05-24T04:21:28.913Z,3400
2018-05-24T04:21:58.966Z,3413
2018-05-24T04:22:28.984Z,3447
2018-05-24T04:22:59.023Z,3473
2018-05-24T04:23:29.081Z,3493
2018-05-24T04:23:59.086Z,3517
2018-05-24T04:24:29.154Z,3540
2018-05-24T04:24:59.147Z,3563
2018-05-24T04:25:29.212Z,3587
2018-05-24T04:25:59.242Z,3607
2018-05-24T04:26:29.297Z,3630
2018-05-24T04:26:59.347Z,3657
2018-05-24T04:27:29.419Z,3683
2018-05-24T04:27:59.400Z,3713
2018-05-24T04:28:29.426Z,3740
2018-05-24T04:28:59.443Z,3767
2018-05-24T04:29:29.443Z,3797
2018-05-24T04:29:59.485Z,3827
2018-05-24T04:30:29.513Z,3850
2018-05-24T04:30:59.549Z,3880
2018-05-24T04:31:29.599Z,3910
2018-05-24T04:31:59.630Z,3933
2018-05-24T04:32:29.634Z,3963
2018-05-24T04:32:59.741Z,3990
2018-05-24T04:33:29.734Z,4023
2018-05-24T04:33:59.746Z,4053
2018-05-24T04:34:29.795Z,4090
2018-05-24T04:34:59.806Z,4133
2018-05-24T04:37:59.951Z,4420
2018-05-24T04:38:29.980Z,4470
2018-05-24T04:39:00.143Z,4520
2018-05-24T04:39:30.081Z,4573
2018-05-24T04:40:00.115Z,4623
2018-05-24T04:40:30.128Z,4677
2018-05-24T04:41:00.178Z,4717
2018-05-24T04:41:30.197Z,4760
2018-05-24T04:42:00.250Z,4800
2018-05-24T04:42:30.278Z,4837
2018-05-24T04:43:01.036Z,4867
2018-05-24T04:43:30.331Z,4907
2018-05-24T04:44:01.395Z,4953
2018-05-24T04:44:30.422Z,5013
2018-05-24T04:45:01.732Z,5093
2018-05-24T04:45:30.558Z,5153
2018-05-24T04:46:01.460Z,5217
2018-05-24T04:46:30.516Z,5273
2018-05-24T04:47:01.637Z,5323
2018-05-24T04:47:30.569Z,5353
2018-05-24T04:48:00.993Z,5387
2018-05-24T04:48:30.658Z,5410
2018-05-24T04:49:01.273Z,5423
2018-05-24T04:49:30.657Z,5440
2018-05-24T04:50:00.967Z,5460
2018-05-24T04:50:30.744Z,5473
2018-05-24T04:51:01.733Z,5487
2018-05-24T04:51:30.813Z,5553
2018-05-24T04:52:01.639Z,6060
2018-05-24T04:52:30.837Z,6913
2018-05-24T04:53:01.980Z,7930
2018-05-24T04:53:30.923Z,8680
2018-05-24T04:54:00.930Z,8890
2018-05-24T04:54:30.973Z,9173
2018-05-24T04:55:01.466Z,9573
2018-05-24T04:55:31.040Z,9653
2018-05-24T04:56:01.632Z,9673
2018-05-24T04:56:31.119Z,9737
2018-05-24T04:57:02.496Z,9803
2018-05-24T04:57:31.181Z,9733
2018-05-24T04:58:01.676Z,9790
2018-05-24T04:58:31.218Z,9960
2018-05-24T04:59:01.243Z,9997
2018-05-24T04:59:31.266Z,10020
2018-05-24T05:00:01.766Z,9893
2018-05-24T05:00:31.358Z,9867
2018-05-24T05:01:01.372Z,9900
2018-05-24T05:01:31.441Z,9857
2018-05-24T05:02:01.733Z,9837
2018-05-24T05:02:31.467Z,9827
2018-05-24T05:03:01.940Z,9867
2018-05-24T05:03:31.520Z,9870
2018-05-24T05:04:01.651Z,9823
2018-05-24T05:04:31.588Z,9680
2018-05-24T05:05:01.665Z,9303
2018-05-24T05:05:31.639Z,9077
2018-05-24T05:06:01.734Z,8807
2018-05-24T05:06:31.702Z,8460
2018-05-24T05:07:01.814Z,8207
2018-05-24T05:07:31.782Z,8363
2018-05-24T05:08:01.817Z,8717
2018-05-24T05:08:31.824Z,8947
2018-05-24T05:09:01.882Z,8713
2018-05-24T05:09:31.874Z,8927
2018-05-24T05:10:01.974Z,8980
2018-05-24T05:10:31.944Z,9153
2018-05-24T05:11:01.973Z,9087
2018-05-24T05:11:32.010Z,9523
2018-05-24T05:12:02.115Z,9013
2018-05-24T05:12:32.064Z,8857
2018-05-24T05:13:02.107Z,8190
2018-05-24T05:13:32.228Z,7927
2018-05-24T05:14:02.817Z,7900
2018-05-24T05:14:32.263Z,8177
2018-05-24T05:15:02.240Z,8167
2018-05-24T05:15:32.280Z,8130
2018-05-24T05:16:02.352Z,8057
2018-05-24T05:16:32.344Z,8293
2018-05-24T05:17:02.402Z,8560
2018-05-24T05:17:32.405Z,8960
2018-05-24T05:18:02.476Z,9057
2018-05-24T05:18:32.495Z,8960
2018-05-24T05:19:03.154Z,8653
2018-05-24T05:19:32.563Z,8410
2018-05-24T05:20:02.570Z,8527
2018-05-24T05:20:32.620Z,8857
2018-05-24T05:21:02.622Z,9093
2018-05-24T05:21:32.698Z,9090
2018-05-24T05:22:02.808Z,8827
2018-05-24T05:22:32.688Z,8973
2018-05-24T05:23:02.757Z,9567
2018-05-24T05:23:32.729Z,9993
2018-05-24T05:24:02.821Z,10457
2018-05-24T05:24:32.856Z,10990
2018-05-24T05:25:02.840Z,11557
2018-05-24T05:25:32.907Z,11880
2018-05-24T05:26:02.929Z,12000
2018-05-24T05:26:33.003Z,12020
2018-05-24T05:27:03.167Z,11660
2018-05-24T05:27:33.068Z,11100
2018-05-24T05:28:03.022Z,10287
2018-05-24T05:28:33.107Z,9747
2018-05-24T05:29:03.128Z,9643
2018-05-24T05:29:33.153Z,10537
2018-05-24T05:30:03.191Z,11987
2018-05-24T05:30:33.261Z,12647
2018-05-24T05:31:03.248Z,12413
2018-05-24T05:31:33.277Z,12530
2018-05-24T05:32:03.416Z,12653
2018-05-24T05:32:33.338Z,12903
2018-05-24T05:33:03.425Z,12517
2018-05-24T05:33:33.402Z,12280
2018-05-24T05:34:03.435Z,12690
2018-05-24T05:34:33.466Z,12530
2018-05-24T05:35:03.491Z,12657
2018-05-24T05:35:33.549Z,12647
2018-05-24T05:36:03.566Z,12023
2018-05-24T05:36:33.571Z,10463
2018-05-24T05:37:03.674Z,9457
2018-05-24T05:37:33.681Z,8977
2018-05-24T05:38:03.688Z,8900
2018-05-24T05:38:33.708Z,9027
2018-05-24T05:39:03.738Z,9267
2018-05-24T05:39:33.741Z,9560
2018-05-24T05:40:03.818Z,10493
2018-05-24T05:40:33.833Z,11393
2018-05-24T05:41:03.892Z,10913
2018-05-24T05:41:33.845Z,10373
2018-05-24T05:42:03.923Z,10000
2018-05-24T05:42:33.956Z,9917
2018-05-24T05:43:03.980Z,10437
2018-05-24T05:43:34.019Z,10250
2018-05-24T05:44:04.034Z,10323
2018-05-24T05:44:34.074Z,10470
2018-05-24T05:45:04.139Z,9300
2018-05-24T05:45:34.134Z,9007
2018-05-24T05:46:04.194Z,8913
2018-05-24T05:46:34.205Z,8843
2018-05-24T05:47:04.277Z,8800
2018-05-24T05:47:34.264Z,8767
2018-05-24T05:48:04.319Z,8737
2018-05-24T05:48:34.319Z,8707
2018-05-24T05:49:04.344Z,8690
2018-05-24T05:49:34.392Z,8680
2018-05-24T05:50:04.403Z,8673
2018-05-24T05:50:34.415Z,8683
2018-05-24T05:51:04.481Z,8713
2018-05-24T05:51:34.472Z,8770
2018-05-24T05:52:04.613Z,8877
2018-05-24T05:52:34.567Z,9007
2018-05-24T05:53:04.578Z,9170
2018-05-24T05:53:34.586Z,9333
2018-05-24T05:54:04.631Z,9487
2018-05-24T05:54:34.652Z,9623
2018-05-24T05:55:04.728Z,9757
2018-05-24T05:55:34.741Z,9873
2018-05-24T05:56:04.760Z,10000
2018-05-24T05:56:34.770Z,10123
2018-05-24T05:57:04.897Z,10267
2018-05-24T05:57:34.833Z,10413
2018-05-24T05:58:04.870Z,10543
2018-05-24T05:58:34.902Z,10653
2018-05-24T05:59:04.935Z,10747
2018-05-24T05:59:34.959Z,10813
2018-05-24T06:00:05.010Z,10830
2018-05-24T06:00:35.097Z,10803
2018-05-24T06:01:05.097Z,10760
2018-05-24T06:01:35.127Z,10717
2018-05-24T06:02:05.191Z,10710
2018-05-24T06:02:35.155Z,10830
2018-05-24T06:03:05.258Z,10897
2018-05-24T06:03:35.204Z,11040
2018-05-24T06:04:05.271Z,11290
2018-05-24T06:04:35.409Z,11663
2018-05-24T06:05:05.372Z,11947
2018-05-24T06:05:35.376Z,12307
2018-05-24T06:06:05.409Z,12680
2018-05-24T06:06:35.387Z,12987
2018-05-24T06:07:05.488Z,13217
2018-05-24T06:07:35.499Z,13437
2018-05-24T06:08:05.548Z,13633
2018-05-24T06:08:35.545Z,13917
2018-05-24T06:09:05.640Z,14070
2018-05-24T06:09:35.683Z,13747
2018-05-24T06:10:05.659Z,13413
2018-05-24T06:10:35.657Z,13070
2018-05-24T06:11:05.768Z,12790
2018-05-24T06:11:35.781Z,12720
2018-05-24T06:12:05.878Z,12873
2018-05-24T06:12:35.801Z,13467
2018-05-24T06:13:05.853Z,13733
2018-05-24T06:13:35.844Z,14137
2018-05-24T06:14:05.948Z,14453
2018-05-24T06:14:35.927Z,13810
2018-05-24T06:15:05.976Z,12847
2018-05-24T06:15:35.960Z,12933
2018-05-24T06:16:06.034Z,13040
2018-05-24T06:16:36.020Z,13093
2018-05-24T06:17:06.144Z,13047
2018-05-24T06:17:36.109Z,12937
2018-05-24T06:18:06.256Z,12787
2018-05-24T06:18:36.220Z,12633
2018-05-24T06:19:06.170Z,12500
2018-05-24T06:19:36.225Z,12440
2018-05-24T06:20:06.276Z,12420
2018-05-24T06:20:36.270Z,12457
2018-05-24T06:21:06.398Z,12553
2018-05-24T06:21:36.415Z,12710
2018-05-24T06:22:06.515Z,12927
2018-05-24T06:22:36.405Z,13163
2018-05-24T06:23:06.472Z,13427
2018-05-24T06:23:36.446Z,13697
2018-05-24T06:24:06.548Z,13910
2018-05-24T06:24:36.559Z,14047
2018-05-24T06:25:06.575Z,14227
2018-05-24T06:25:36.657Z,14387
2018-05-24T06:26:06.640Z,14603
2018-05-24T06:26:36.696Z,14970
2018-05-24T06:27:06.715Z,15943
2018-05-24T06:27:36.705Z,15697
2018-05-24T06:28:06.725Z,17053
2018-05-24T06:28:36.974Z,16007
2018-05-24T06:29:06.824Z,18843
2018-05-24T06:29:36.902Z,18023
2018-05-24T06:30:06.877Z,18280
2018-05-24T06:30:36.865Z,16873
2018-05-24T06:31:06.962Z,16857
2018-05-24T06:31:37.001Z,16873
2018-05-24T06:32:07.079Z,16833
2018-05-24T06:32:37.001Z,16710
2018-05-24T06:33:07.089Z,16490
2018-05-24T06:33:37.107Z,16173
2018-05-24T06:34:07.137Z,15933
2018-05-24T06:34:37.168Z,15760
2018-05-24T06:35:07.185Z,15507
2018-05-24T06:35:37.263Z,17440
2018-05-24T06:36:07.236Z,15447
2018-05-24T06:36:37.320Z,15513
2018-05-24T06:37:07.382Z,16620
2018-05-24T06:37:37.358Z,16103
2018-05-24T06:38:07.379Z,16063
2018-05-24T06:38:37.379Z,16117
2018-05-24T06:39:07.418Z,16183
2018-05-24T06:39:37.458Z,16390
2018-05-24T06:40:07.496Z,16367
2018-05-24T06:40:37.659Z,16597
2018-05-24T06:41:07.572Z,16290
2018-05-24T06:41:37.561Z,16187
2018-05-24T06:42:07.632Z,16030
2018-05-24T06:42:37.662Z,15950
2018-05-24T06:43:07.646Z,15660
2018-05-24T06:43:37.677Z,15313
2018-05-24T06:44:07.729Z,14887
2018-05-24T06:44:37.729Z,14443
2018-05-24T06:45:07.773Z,13980
2018-05-24T06:45:37.840Z,13537
2018-05-24T06:46:07.899Z,13193
2018-05-24T06:46:37.854Z,12963
2018-05-24T06:47:07.945Z,12820
2018-05-24T06:47:37.912Z,12780
2018-05-24T06:48:08.017Z,12823
2018-05-24T06:48:37.989Z,12957
2018-05-24T06:49:08.092Z,13167
2018-05-24T06:49:38.065Z,13433
2018-05-24T06:50:08.092Z,13783
2018-05-24T06:50:38.112Z,14150
2018-05-24T06:51:08.145Z,14513
2018-05-24T06:51:38.191Z,14837
2018-05-24T06:52:08.242Z,15090
2018-05-24T06:52:38.263Z,15223
2018-05-24T06:53:08.311Z,15263
2018-05-24T06:53:38.380Z,15190
2018-05-24T06:54:08.389Z,15077
2018-05-24T06:54:38.350Z,15003
2018-05-24T06:55:08.441Z,14960
2018-05-24T06:55:38.419Z,15030
2018-05-24T06:56:08.472Z,15270
2018-05-24T06:56:38.543Z,15400
2018-05-24T06:57:08.627Z,15613
2018-05-24T06:57:38.591Z,16003
2018-05-24T06:58:08.629Z,16260
2018-05-24T06:58:38.625Z,16813
2018-05-24T06:59:08.678Z,17113
2018-05-24T06:59:38.701Z,17500
2018-05-24T07:00:08.984Z,17930
2018-05-24T07:00:38.960Z,18413
2018-05-24T07:01:09.053Z,18867
2018-05-24T07:01:39.311Z,19257
2018-05-24T07:02:09.119Z,19577
2018-05-24T07:02:39.149Z,19793
2018-05-24T07:03:09.210Z,19893
2018-05-24T07:03:39.223Z,20083
2018-05-24T07:04:09.236Z,20257
2018-05-24T07:04:39.278Z,20227
2018-05-24T07:05:09.325Z,20503
2018-05-24T07:05:39.714Z,22477
2018-05-24T07:06:09.354Z,20683
2018-05-24T07:06:39.436Z,20980
2018-05-24T07:07:09.445Z,21020
2018-05-24T07:07:39.464Z,20963
2018-05-24T07:08:09.483Z,20910
2018-05-24T07:08:39.488Z,20843
2018-05-24T07:09:09.497Z,21443
2018-05-24T07:09:39.600Z,21980
2018-05-24T07:10:09.595Z,21593
2018-05-24T07:10:39.677Z,22117
2018-05-24T07:11:09.865Z,21567
2018-05-24T07:11:39.700Z,21693
2018-05-24T07:12:09.716Z,21370
2018-05-24T07:12:39.787Z,21567
2018-05-24T07:13:09.786Z,21227
2018-05-24T07:13:39.825Z,21123
2018-05-24T07:14:09.888Z,20660
2018-05-24T07:14:39.911Z,20860
2018-05-24T07:15:09.932Z,21043
2018-05-24T07:15:39.940Z,20893
2018-05-24T07:16:09.971Z,21870
2018-05-24T07:16:39.999Z,20227
2018-05-24T07:17:10.036Z,19557
2018-05-24T07:17:40.041Z,19067
2018-05-24T07:18:10.210Z,18363
2018-05-24T07:18:40.191Z,18307
2018-05-24T07:19:10.155Z,18103
2018-05-24T07:19:40.146Z,17960
2018-05-24T07:20:10.230Z,18657
2018-05-24T07:20:40.244Z,19380
2018-05-24T07:21:10.268Z,18750
2018-05-24T07:21:40.270Z,18677
2018-05-24T07:22:10.337Z,19280
2018-05-24T07:22:40.368Z,21233
2018-05-24T07:23:10.406Z,20770
2018-05-24T07:23:40.382Z,21773
2018-05-24T07:24:10.451Z,21800
2018-05-24T07:24:40.516Z,22857
2018-05-24T07:25:10.529Z,21083
2018-05-24T07:25:40.537Z,22360
2018-05-24T07:26:10.596Z,23193
2018-05-24T07:26:40.610Z,23273
2018-05-24T07:27:10.615Z,22703
2018-05-24T07:27:40.891Z,22903
2018-05-24T07:28:10.692Z,22807
2018-05-24T07:28:40.726Z,23137
2018-05-24T07:29:10.738Z,23473
2018-05-24T07:29:40.768Z,23703
2018-05-24T07:30:10.829Z,24543
2018-05-24T07:30:40.834Z,24337
2018-05-24T07:31:10.870Z,24263
2018-05-24T07:31:40.882Z,24560
2018-05-24T07:32:10.921Z,26310
2018-05-24T07:32:40.973Z,26607
2018-05-24T07:33:11.040Z,27580
2018-05-24T07:33:41.033Z,26950
2018-05-24T07:34:11.105Z,29467
2018-05-24T07:34:41.112Z,30323
2018-05-24T07:35:11.135Z,30573
2018-05-24T07:35:41.158Z,30143
2018-05-24T07:36:11.188Z,29447
2018-05-24T07:36:41.183Z,29337
2018-05-24T07:37:11.308Z,29447
2018-05-24T07:37:41.328Z,28260
2018-05-24T07:38:11.328Z,27967
2018-05-24T07:38:41.422Z,28113
2018-05-24T07:39:11.423Z,28060
2018-05-24T07:39:41.420Z,27800
2018-05-24T07:40:13.349Z,27497
2018-05-24T07:40:41.496Z,26703
2018-05-24T07:41:11.530Z,26427
2018-05-24T07:41:41.543Z,25473
2018-05-24T07:42:11.607Z,24660
2018-05-24T07:42:41.573Z,25903
2018-05-24T07:43:11.654Z,25720
2018-05-24T07:43:41.649Z,25217
2018-05-24T07:44:11.735Z,24880
2018-05-24T07:44:41.759Z,24823
2018-05-24T07:45:11.856Z,24963
2018-05-24T07:45:41.783Z,24117
2018-05-24T07:46:11.852Z,22123
2018-05-24T07:46:41.864Z,21283
2018-05-24T07:47:11.902Z,22197
2018-05-24T07:47:41.902Z,20770
2018-05-24T07:48:12.118Z,20693
2018-05-24T07:48:42.013Z,20513
2018-05-24T07:49:12.046Z,19690
2018-05-24T07:49:42.061Z,19063
2018-05-24T07:50:12.033Z,19060
2018-05-24T07:50:42.089Z,19437
2018-05-24T07:51:12.177Z,20543
2018-05-24T07:51:42.119Z,23213
2018-05-24T07:52:12.208Z,24397
2018-05-24T07:52:42.207Z,21900
2018-05-24T07:53:12.274Z,21343
2018-05-24T07:53:42.275Z,21900
2018-05-24T07:54:12.332Z,22620
2018-05-24T07:54:42.352Z,22770
2018-05-24T07:55:12.399Z,25270
2018-05-24T07:55:42.384Z,24620
2018-05-24T07:56:12.488Z,20567
2018-05-24T07:56:42.461Z,19847
2018-05-24T07:57:12.513Z,19413
2018-05-24T07:57:42.509Z,19360
2018-05-24T07:58:12.576Z,19267
2018-05-24T07:58:42.584Z,19413
2018-05-24T07:59:12.669Z,18790
2018-05-24T07:59:42.648Z,18533
2018-05-24T08:00:12.702Z,18413
2018-05-24T08:00:42.698Z,18400
2018-05-24T08:01:12.793Z,18467
2018-05-24T08:01:42.824Z,18630
2018-05-24T08:02:12.816Z,18870
2018-05-24T08:02:42.886Z,19207
2018-05-24T08:03:12.887Z,19703
2018-05-24T08:03:42.893Z,20107
2018-05-24T08:04:12.954Z,20467
2018-05-24T08:04:42.988Z,20703
2018-05-24T08:05:13.023Z,20970
2018-05-24T08:05:43.064Z,21623
2018-05-24T08:06:13.078Z,21640
2018-05-24T08:06:43.118Z,21973
2018-05-24T08:07:13.129Z,22150
2018-05-24T08:07:43.139Z,22050
2018-05-24T08:08:13.179Z,22240
2018-05-24T08:08:43.315Z,22620
2018-05-24T08:09:13.232Z,22363
2018-05-24T08:09:43.286Z,22483
2018-05-24T08:10:13.338Z,22727
2018-05-24T08:10:43.300Z,23287
2018-05-24T08:11:13.374Z,23997
2018-05-24T08:11:43.416Z,24730
2018-05-24T08:12:13.406Z,25920
2018-05-24T08:12:43.449Z,26687
2018-05-24T08:13:13.464Z,27717
2018-05-24T08:13:43.504Z,28943
2018-05-24T08:14:13.731Z,30183
2018-05-24T08:14:43.637Z,30207
2018-05-24T08:15:13.645Z,30347
2018-05-24T08:15:43.623Z,30510
2018-05-24T08:16:13.657Z,30750
2018-05-24T08:16:43.653Z,31787
2018-05-24T08:17:13.721Z,32893
2018-05-24T08:17:43.747Z,33840
2018-05-24T08:18:13.778Z,33677
2018-05-24T08:18:43.790Z,34737
2018-05-24T08:19:13.860Z,35773
2018-05-24T08:19:43.873Z,36203
2018-05-24T08:20:13.921Z,32750
2018-05-24T08:20:43.922Z,29933
2018-05-24T08:21:43.968Z,30143
2018-05-24T08:22:14.048Z,27933
2018-05-24T08:22:44.037Z,28550
2018-05-24T08:23:14.111Z,29140
2018-05-24T08:23:44.088Z,28830
2018-05-24T08:24:14.138Z,27303
2018-05-24T08:24:44.162Z,26643
2018-05-24T08:25:14.241Z,25477
2018-05-24T08:25:44.264Z,24763
2018-05-24T08:26:14.293Z,24033
2018-05-24T08:26:44.312Z,23730
2018-05-24T08:27:14.374Z,23273
2018-05-24T08:27:44.385Z,22903
2018-05-24T08:28:14.399Z,22623
2018-05-24T08:28:44.453Z,22420
2018-05-24T08:29:14.472Z,22340
2018-05-24T08:29:44.509Z,22323
2018-05-24T08:30:14.604Z,22380
2018-05-24T08:30:44.535Z,22287
2018-05-24T08:31:14.608Z,22360
2018-05-24T08:31:44.626Z,22530
2018-05-24T08:32:14.626Z,22740
2018-05-24T08:32:44.650Z,23057
2018-05-24T08:33:14.765Z,23423
2018-05-24T08:33:44.711Z,23763
2018-05-24T08:34:14.824Z,24213
2018-05-24T08:34:44.811Z,24643
2018-05-24T08:35:15.019Z,24897
2018-05-24T08:35:45.000Z,24647
2018-05-24T08:36:15.056Z,25013
2018-05-24T08:36:45.006Z,25730
2018-05-24T08:37:15.123Z,26117
2018-05-24T08:37:45.087Z,26500
2018-05-24T08:38:15.118Z,27337
2018-05-24T08:38:45.147Z,27980
2018-05-24T08:39:15.173Z,27800
2018-05-24T08:39:45.206Z,26490
2018-05-24T08:40:15.252Z,26407
2018-05-24T08:40:45.390Z,27217
2018-05-24T08:41:15.301Z,28270
2018-05-24T08:41:45.411Z,29090
2018-05-24T08:42:15.363Z,30480
2018-05-24T08:42:45.396Z,30967
2018-05-24T08:43:15.465Z,31643
2018-05-24T08:43:45.454Z,33047
2018-05-24T08:44:15.487Z,33703
2018-05-24T08:44:45.475Z,34630
2018-05-24T08:45:15.651Z,35650
2018-05-24T08:45:45.570Z,35277
2018-05-24T08:46:15.588Z,34713
2018-05-24T08:46:45.636Z,34487
2018-05-24T08:47:15.765Z,34247
2018-05-24T08:47:45.705Z,33810
2018-05-24T08:48:15.728Z,33027
2018-05-24T08:48:45.773Z,32230
2018-05-24T08:56:51.774Z,23733
2018-05-24T08:57:16.323Z,23567
2018-05-24T08:57:46.318Z,23547
2018-05-24T08:58:16.363Z,23360
2018-05-24T08:58:46.369Z,23273
2018-05-24T08:59:16.424Z,22933
2018-05-24T08:59:46.407Z,22843
2018-05-24T09:00:16.474Z,22703
2018-05-24T09:00:46.497Z,22340
2018-05-24T09:01:16.640Z,22463
2018-05-24T09:01:46.554Z,22467
2018-05-24T09:02:16.624Z,22300
2018-05-24T09:02:46.642Z,22647
2018-05-24T09:03:16.683Z,21823
2018-05-24T09:03:46.692Z,21587
2018-05-24T09:04:16.718Z,21443
2018-05-24T09:04:46.713Z,21420
2018-05-24T09:05:16.781Z,21580
2018-05-24T09:05:46.789Z,21770
2018-05-24T09:06:16.818Z,22053
2018-05-24T09:06:46.926Z,22507
2018-05-24T09:07:16.901Z,23047
2018-05-24T09:07:46.889Z,22750
2018-05-24T09:08:16.953Z,22803
2018-05-24T09:08:46.955Z,22663
2018-05-24T09:09:17.006Z,22460
2018-05-24T09:09:47.021Z,22247
2018-05-24T09:10:17.073Z,21970
2018-05-24T09:10:47.103Z,21657
2018-05-24T09:11:17.130Z,21327
2018-05-24T09:11:47.171Z,20937
2018-05-24T09:12:17.247Z,20543
2018-05-24T09:12:47.250Z,20173
2018-05-24T09:13:17.243Z,19860
2018-05-24T09:13:47.294Z,19623
2018-05-24T09:14:17.314Z,19483
2018-05-24T09:14:47.400Z,19500
2018-05-24T09:15:17.419Z,19680
2018-05-24T09:15:47.418Z,19923
2018-05-24T09:16:17.473Z,20180
2018-05-24T09:16:47.479Z,20513
2018-05-24T09:17:17.541Z,21077
2018-05-24T09:17:47.584Z,22577
2018-05-24T09:18:17.590Z,23183
2018-05-24T09:18:47.588Z,24723
2018-05-24T09:19:17.620Z,25643
2018-05-24T09:19:47.662Z,28457
2018-05-24T09:20:17.776Z,27280
2018-05-24T09:20:47.778Z,27340
2018-05-24T09:21:17.786Z,26307
2018-05-24T09:21:47.884Z,25893
2018-05-24T09:22:17.828Z,25657
2018-05-24T09:22:47.893Z,27373
2018-05-24T09:23:17.938Z,25793
2018-05-24T09:23:47.927Z,27070
2018-05-24T09:24:17.966Z,25287
2018-05-24T09:24:47.949Z,24727
2018-05-24T09:25:18.042Z,24873
2018-05-24T09:25:48.089Z,24523
2018-05-24T09:26:18.070Z,24317
2018-05-24T09:26:48.116Z,24133
2018-05-24T09:27:18.147Z,23563
2018-05-24T09:27:48.191Z,23097
2018-05-24T09:28:18.211Z,23073
2018-05-24T09:28:48.249Z,23787
2018-05-24T09:29:18.352Z,24510
2018-05-24T09:29:48.310Z,24430
2018-05-24T09:30:18.330Z,24877
2018-05-24T09:30:48.372Z,24277